Latest Weather Observations for Snowtown

IDS60801

Issued at 12:11 pm CDT Thursday 21 November 2019 (issued every 10 minutes, with the page automatically refreshed every 10 minutes)

About weather observations | Map of weather stations | Latest weather observations for SA | Other Formats
Station Details ID: 021133 Name: RAYVILLE PARK Lat: -33.77 Lon: 138.22 Height: 109.1 m
Data from the previous 72 hours. | See also: Recent months at Snowtown
Date/Time
CDT
Temp
°C
App
Temp
°C
Dew
Point
°C
Rel
Hum
%
Delta-T
°C
Wind Press
QNH
hPa
Press
MSL
hPa
Rain since
9am
mm
Dir  Spd
km/h
Gust
km/h
Spd
kts
Gust
kts
21/12:00pm 21.3 15.2 11.6 54 5.4 SW 35 46 19 25 1012.2 1012.0 0.0
21/11:30am 21.1 15.2 11.2 53 5.5 WSW 33 44 18 24 1011.5 1011.2 0.0
21/11:00am 21.6 15.5 11.9 54 5.5 SW 35 44 19 24 1011.4 1011.1 0.0
21/10:30am 20.7 14.9 10.8 53 5.4 SW 32 43 17 23 1011.0 1010.7 0.0
21/10:00am 18.9 13.8 11.9 64 3.9 WSW 30 43 16 23 1011.4 1011.1 0.0
21/09:30am 17.6 13.2 12.9 74 2.6 WSW 28 37 15 20 1011.3 1011.0 0.0
21/09:00am 17.7 13.2 12.6 72 2.9 WSW 28 39 15 21 1010.7 1010.4 0.0
21/08:30am 17.5 13.5 13.0 75 2.5 WSW 26 37 14 20 1010.2 1009.9 0.0
21/08:00am 17.4 13.8 12.9 75 2.5 WSW 24 32 13 17 1010.0 1009.7 0.0
21/07:30am 17.3 12.9 13.0 76 2.4 W 28 39 15 21 1009.2 1008.9 0.0
21/07:00am 17.7 14.1 13.2 75 2.5 WSW 24 35 13 19 1008.8 1008.5 0.0
21/06:30am 17.9 12.9 13.4 75 2.6 SSE 32 50 17 27 1006.9 1006.6 0.0
21/06:24am 18.1 13.9 13.4 74 2.7 SSE 28 50 15 27 1006.6 1006.3 0.0
21/06:16am 18.0 14.1 13.3 74 2.7 S 26 44 14 24 1006.5 1006.2 0.0
21/06:07am 17.8 9.3 13.3 75 2.5 WSW 50 72 27 39 1004.5 1004.2 0.0
21/06:00am 17.9 7.7 13.2 74 2.7 W 59 82 32 44 1003.3 1002.9 0.0
21/05:30am 19.1 7.6 12.6 66 3.7 W 65 85 35 46 1001.3 1001.0 0.0
21/05:07am 20.0 9.0 12.0 60 4.5 W 61 80 33 43 1000.8 1000.5 0.0
21/05:00am 20.3 9.3 12.0 59 4.7 W 61 76 33 41 1000.8 1000.5 0.0
21/04:51am 21.7 11.1 9.9 47 6.4 W 56 74 30 40 1000.5 1000.2 0.0
21/04:30am 26.7 18.0 3.9 23 11.5 W 39 61 21 33 1000.4 1000.1 0.0
21/04:23am 28.9 20.6 -0.3 15 13.8 WNW 33 48 18 26 1000.2 999.9 0.0
21/04:00am 29.1 20.6 -7.0 9 15.2 N 30 35 16 19 999.2 998.9 0.0
21/03:30am 29.9 21.8 -6.4 9 15.7 N 28 35 15 19 999.1 998.8 0.0
21/03:00am 29.6 21.5 -6.6 9 15.5 N 28 33 15 18 998.9 998.6 0.0
21/02:30am 29.9 21.5 -6.4 9 15.7 N 30 35 16 19 998.9 998.6 0.0
21/02:00am 30.4 21.6 -6.0 9 15.8 N 32 41 17 22 999.6 999.3 0.0
21/01:30am 30.5 22.1 -5.9 9 15.9 N 30 35 16 19 1000.0 999.7 0.0
21/01:00am 30.8 23.2 -5.7 9 16.0 N 26 30 14 16 1000.7 1000.4 0.0
21/12:30am 28.4 21.5 -6.1 10 14.8 N 22 24 12 13 1001.1 1000.8 0.0
21/12:00am 29.5 21.8 -6.7 9 15.5 NNE 26 30 14 16 1001.3 1001.0 0.0
 
Date/Time
CDT
Temp
°C
App
Temp
°C
Dew
Point
°C
Rel
Hum
%
Delta-T
°C
Wind Press
QNH
hPa
Press
MSL
hPa
Rain since
9am
mm
Dir  Spd
km/h
Gust
km/h
Spd
kts
Gust
kts
20/11:46pm 30.5 23.1 -7.4 8 16.1 NNE 24 33 13 18 1001.4 1001.1 0.0
20/11:30pm 35.5 26.6 -7.5 6 19.1 N 32 39 17 21 1001.5 1001.2 0.0
20/11:00pm 35.8 26.9 -7.3 6 19.1 NNW 32 37 17 20 1001.7 1001.4 0.0
20/10:30pm 36.7 27.7 -6.7 6 19.7 NNW 33 43 18 23 1001.9 1001.6 0.0
20/10:00pm 36.7 27.8 -6.7 6 19.6 N 32 39 17 21 1002.0 1001.7 0.0
20/09:30pm 37.4 28.0 -6.2 6 20.0 N 35 44 19 24 1002.0 1001.7 0.0
20/09:00pm 37.8 27.7 -5.9 6 20.2 N 39 48 21 26 1001.8 1001.5 0.0
20/08:30pm 37.4 27.6 -6.2 6 20.0 N 37 46 20 25 1001.8 1001.5 0.0
20/08:00pm 38.3 27.9 -5.5 6 20.4 N 41 59 22 32 1001.8 1001.5 0.0
20/07:41pm 38.8 28.5 -7.6 5 21.0 N 39 57 21 31 1001.7 1001.4 0.0
20/07:30pm 39.0 29.1 -7.4 5 21.1 N 37 48 20 26 1001.7 1001.4 0.0
20/07:00pm 40.0 27.7 -6.7 5 21.6 N 50 63 27 34 1001.7 1001.4 0.0
20/06:30pm 40.7 28.8 -6.3 5 22.0 N 48 67 26 36 1001.6 1001.3 0.0
20/06:03pm 41.0 28.5 -8.9 4 22.5 NNW 50 69 27 37 1001.6 1001.3 0.0
20/06:00pm 41.0 28.5 -8.9 4 22.6 NNW 50 67 27 36 1001.7 1001.4 0.0
20/05:33pm 41.7 28.9 -8.5 4 22.9 NNW 52 70 28 38 1001.8 1001.5 0.0
20/05:30pm 41.8 28.2 -8.4 4 23.0 NNW 56 70 30 38 1001.7 1001.4 0.0
20/05:01pm 42.2 29.0 -8.1 4 23.1 NNW 54 72 29 39 1002.0 1001.7 0.0
20/05:00pm 42.1 28.5 -8.2 4 23.1 NNW 56 72 30 39 1002.0 1001.7 0.0
20/04:30pm 42.2 29.0 -8.1 4 23.2 NNW 54 74 29 40 1002.5 1002.2 0.0
20/04:00pm 42.7 29.0 -7.8 4 23.4 NNW 57 76 31 41 1002.5 1002.2 0.0
20/03:31pm 43.1 30.0 -7.5 4 23.6 NNW 54 72 29 39 1003.1 1002.8 0.0
20/03:30pm 42.8 29.3 -7.7 4 23.5 NNW 56 72 30 39 1003.3 1002.9 0.0
20/03:03pm 42.7 29.9 -7.8 4 23.4 NNW 52 70 28 38 1003.8 1003.4 0.0
20/03:00pm 42.3 29.1 -8.0 4 23.2 NNW 54 70 29 38 1003.9 1003.5 0.0
20/02:47pm 42.5 29.7 -7.9 4 23.3 NNW 52 72 28 39 1004.0 1003.7 0.0
20/02:30pm 42.5 30.1 -7.9 4 23.4 N 50 67 27 36 1004.2 1003.9 0.0
20/02:11pm 42.7 30.3 -7.8 4 23.4 NNW 50 69 27 37 1004.7 1004.4 0.0
20/02:00pm 41.8 28.6 -8.4 4 22.9 NNW 54 70 29 38 1004.9 1004.6 0.0
20/01:55pm 42.0 29.6 -8.2 4 23.0 NNW 50 70 27 38 1005.0 1004.7 0.0
20/01:30pm 42.2 30.2 -8.1 4 23.2 NNW 48 65 26 35 1005.3 1005.0 0.0
20/01:00pm 41.5 28.7 -8.6 4 22.7 NNW 52 70 28 38 1005.8 1005.5 0.0
20/12:30pm 41.3 28.7 -5.8 5 22.3 NNW 52 72 28 39 1006.3 1006.0 0.0
20/12:00pm 40.3 26.9 -6.5 5 21.8 NNW 56 76 30 41 1006.7 1006.4 0.0
20/11:56am 39.7 26.6 -6.9 5 21.4 NNW 54 76 29 41 1006.8 1006.5 0.0
20/11:30am 40.4 27.4 -6.5 5 21.8 NNW 54 69 29 37 1007.2 1006.9 0.0
20/11:09am 39.5 26.8 -7.1 5 21.3 NNW 52 70 28 38 1007.1 1006.8 0.0
20/11:00am 39.3 26.6 -7.2 5 21.2 NNW 52 63 28 34 1007.2 1006.9 0.0
20/10:32am 39.3 27.0 -7.2 5 21.2 NNW 50 69 27 37 1007.5 1007.2 0.0
20/10:30am 38.7 26.0 -7.6 5 20.9 NNW 52 69 28 37 1007.5 1007.2 0.0
20/10:03am 38.1 26.5 -8.1 5 20.6 NNW 46 65 25 35 1007.6 1007.3 0.0
20/10:00am 38.4 26.8 -7.8 5 20.7 NNW 46 61 25 33 1007.6 1007.3 0.0
20/09:30am 36.9 25.8 -6.5 6 19.7 NNW 44 54 24 29 1007.9 1007.6 0.0
20/09:17am 37.0 27.2 -6.5 6 19.7 NNW 37 44 20 24 1008.0 1007.7 0.0
20/09:00am 34.7 26.1 -4.4 8 18.1 NNE 32 39 17 21 1008.1 1007.8 0.0
20/08:30am 32.2 22.6 -4.6 9 16.6 NNE 37 46 20 25 1008.2 1007.9 0.0
20/08:00am 30.2 21.7 -3.5 11 15.2 N 32 41 17 22 1008.3 1008.0 0.0
20/07:30am 27.8 19.3 -3.1 13 13.8 NNE 32 39 17 21 1008.2 1007.9 0.0
20/07:00am 26.6 18.2 -2.1 15 12.9 N 32 39 17 21 1008.1 1007.8 0.0
20/06:30am 26.0 17.7 -1.7 16 12.5 N 32 39 17 21 1007.9 1007.6 0.0
20/06:00am 25.4 17.4 0.1 19 11.8 N 32 37 17 20 1007.8 1007.5 0.0
20/05:30am 24.9 17.9 1.7 22 11.1 N 28 32 15 17 1007.9 1007.6 0.0
20/05:00am 25.7 17.9 1.8 21 11.5 N 32 37 17 20 1008.0 1007.7 0.0
20/04:30am 24.0 17.4 2.2 24 10.4 N 26 30 14 16 1007.9 1007.6 0.0
20/04:00am 20.4 14.7 0.3 26 9.0 N 20 22 11 12 1008.0 1007.7 0.0
20/03:30am 19.8 14.3 0.8 28 8.6 N 19 20 10 11 1008.1 1007.8 0.0
20/03:00am 20.9 15.2 0.7 26 9.2 N 20 22 11 12 1008.4 1008.1 0.0
20/02:30am 17.5 13.0 7.0 50 5.3 N 20 22 11 12 1008.7 1008.4 0.0
20/02:00am 19.0 16.6 8.6 51 5.4 NNE 11 15 6 8 1009.3 1009.0 0.0
20/01:30am 20.1 15.9 3.8 34 7.8 NNE 15 17 8 9 1009.5 1009.2 0.0
20/01:00am 21.7 20.4 9.3 45 6.7 NE 6 9 3 5 1010.0 1009.7 0.0
20/12:30am 19.3 16.7 9.2 52 5.4 NNE 13 19 7 10 1010.3 1010.0 0.0
20/12:00am 18.9 14.9 8.3 50 5.5 N 19 22 10 12 1010.7 1010.4 0.0
 
Date/Time
CDT
Temp
°C
App
Temp
°C
Dew
Point
°C
Rel
Hum
%
Delta-T
°C
Wind Press
QNH
hPa
Press
MSL
hPa
Rain since
9am
mm
Dir  Spd
km/h
Gust
km/h
Spd
kts
Gust
kts
19/11:30pm 17.3 14.8 4.9 44 6.0 NW 7 11 4 6 1011.2 1010.9 0.0
19/11:00pm 17.9 14.8 7.3 50 5.4 NNW 13 17 7 9 1011.4 1011.1 0.0
19/10:30pm 19.0 17.6 7.4 47 5.9 WSW 4 9 2 5 1012.3 1012.1 0.0
19/10:00pm 19.4 16.5 9.6 53 5.2 SW 15 17 8 9 1012.4 1012.2 0.0
19/09:30pm 20.7 17.7 11.9 57 4.9 SSW 19 24 10 13 1012.5 1012.3 0.0
19/09:00pm 22.1 18.6 10.3 47 6.5 SSW 19 26 10 14 1012.1 1011.9 0.0
19/08:30pm 24.4 20.5 8.8 37 8.4 SSW 19 30 10 16 1011.7 1011.4 0.0
19/08:00pm 27.7 25.3 8.6 30 10.5 SSW 11 15 6 8 1011.3 1011.0 0.0
19/07:30pm 28.9 26.1 8.6 28 11.2 SSW 13 17 7 9 1011.0 1010.7 0.0
19/07:00pm 29.9 26.8 8.9 27 11.7 SSW 15 19 8 10 1010.8 1010.5 0.0
19/06:30pm 30.9 27.4 8.6 25 12.4 SSW 17 22 9 12 1010.5 1010.2 0.0
19/06:00pm 31.3 27.7 8.3 24 12.8 SSW 17 22 9 12 1010.4 1010.1 0.0
19/05:30pm 32.5 28.6 8.7 23 13.4 SSW 19 22 10 12 1010.4 1010.1 0.0
19/05:00pm 35.2 31.4 3.7 14 16.6 SW 13 19 7 10 1010.5 1010.2 0.0
19/04:30pm 35.8 30.9 2.0 12 17.4 SW 17 30 9 16 1010.6 1010.3 0.0
19/04:00pm 35.6 32.0 3.0 13 17.0 W 11 15 6 8 1010.8 1010.5 0.0
19/03:30pm 35.4 32.0 7.5 18 15.6 WNW 15 22 8 12 1010.9 1010.6 0.0
19/03:00pm 35.9 32.6 6.2 16 16.3 SSE 13 24 7 13 1011.4 1011.1 0.0
19/02:30pm 35.6 32.6 4.0 14 16.8 W 9 24 5 13 1011.8 1011.5 0.0
19/02:00pm 34.3 30.9 4.0 15 16.0 SSW 11 22 6 12 1012.0 1011.8 0.0
19/01:30pm 33.8 30.3 5.4 17 15.3 SSW 13 20 7 11 1012.5 1012.3 0.0
19/01:00pm 32.5 29.7 5.1 18 14.5 N 9 17 5 9 1012.7 1012.5 0.0
19/12:30pm 31.4 28.4 5.8 20 13.7 SW 11 17 6 9 1013.2 1012.9 0.0
19/12:00pm 30.9 27.9 6.0 21 13.3 S 11 17 6 9 1013.5 1013.2 0.0
19/11:30am 29.5 26.0 7.4 25 12.0 SSE 15 20 8 11 1013.9 1013.6 0.0
19/11:00am 27.9 24.8 7.2 27 11.1 SSW 13 17 7 9 1014.0 1013.7 0.0
19/10:30am 26.5 23.3 8.5 32 9.8 SSE 15 24 8 13 1014.1 1013.8 0.0
19/10:00am 24.2 22.1 9.8 40 7.9 SSE 11 17 6 9 1013.9 1013.6 0.0
19/09:30am 23.1 22.0 10.5 45 7.0 SSE 7 13 4 7 1014.0 1013.7 0.0
19/09:00am 21.0 19.7 11.3 54 5.4 S 9 15 5 8 1014.1 1013.8 0.0
19/08:30am 19.7 18.8 11.2 58 4.7 S 7 11 4 6 1014.0 1013.7 0.0
19/08:00am 18.4 16.7 9.7 57 4.6 S 9 13 5 7 1014.0 1013.7 0.0
19/07:30am 17.4 15.4 8.5 56 4.6 SSW 9 11 5 6 1013.9 1013.6 0.0
19/07:00am 14.4 12.1 4.7 52 4.5 SW 6 7 3 4 1013.6 1013.3 0.0
19/06:30am 12.3 11.1 4.5 59 3.6 CALM 0 0 0 0 1013.2 1012.9 0.0
19/06:00am 12.0 10.7 4.2 59 3.5 CALM 0 6 0 3 1012.9 1012.6 0.0
19/05:30am 13.1 10.2 4.5 56 4.0 SW 9 11 5 6 1012.5 1012.3 0.0
19/05:00am 12.9 9.6 2.2 48 4.7 SW 9 9 5 5 1012.5 1012.3 0.0
19/04:30am 13.3 9.5 1.6 45 5.1 SW 11 13 6 7 1012.5 1012.3 0.0
19/04:00am 13.3 9.7 0.7 42 5.3 SSW 9 13 5 7 1012.3 1012.1 0.0
19/03:30am 12.7 9.6 0.1 42 5.2 SW 6 11 3 6 1012.2 1012.0 0.0
19/03:00am 13.0 11.0 -0.3 40 5.5 CALM 0 0 0 0 1012.3 1012.1 0.0
19/02:30am 14.6 12.8 1.2 40 5.8 CALM 0 0 0 0 1012.4 1012.2 0.0
19/02:00am 15.3 11.2 -0.1 35 6.5 SW 11 13 6 7 1012.7 1012.5 0.0
19/01:30am 16.8 12.2 -1.3 29 7.6 WSW 13 13 7 7 1013.0 1012.7 0.0
19/01:00am 17.5 15.2 -2.2 26 8.2 CALM 0 0 0 0 1013.3 1013.0 0.0
19/12:30am 18.2 15.5 -2.7 24 8.6 S 2 7 1 4 1013.3 1013.0 0.0
19/12:00am 20.1 16.6 -1.7 23 9.4 WSW 7 13 4 7 1013.2 1012.9 0.0
 
Date/Time
CDT
Temp
°C
App
Temp
°C
Dew
Point
°C
Rel
Hum
%
Delta-T
°C
Wind Press
QNH
hPa
Press
MSL
hPa
Rain since
9am
mm
Dir  Spd
km/h
Gust
km/h
Spd
kts
Gust
kts
18/11:30pm 19.5 14.4 -2.2 23 9.2 SW 15 17 8 9 1013.2 1012.9 0.0
18/11:00pm 18.0 12.8 -5.9 19 9.2 SSW 13 17 7 9 1013.4 1013.1 0.0
18/10:30pm 20.2 15.2 -4.1 19 10.0 SW 13 15 7 8 1013.5 1013.2 0.0
18/10:00pm 18.9 14.5 -5.9 18 9.7 SW 9 11 5 6 1013.6 1013.3 0.0
18/09:30pm 22.4 17.7 -5.5 15 11.4 SW 11 11 6 6 1013.3 1013.0 0.0
18/09:00pm 23.6 18.8 -6.4 13 12.1 WSW 11 13 6 7 1013.2 1012.9 0.0
18/08:30pm 26.0 20.1 -5.6 12 13.3 WSW 17 20 9 11 1013.0 1012.7 0.0
18/08:00pm 26.5 20.5 -6.3 11 13.7 WNW 17 19 9 10 1012.5 1012.3 0.0
18/07:30pm 31.0 25.7 -7.1 8 16.3 W 13 17 7 9 1012.3 1012.1 0.0
18/07:00pm 33.8 27.8 -6.8 7 17.9 WNW 17 20 9 11 1012.1 1011.9 0.0
18/06:30pm 34.5 28.4 -8.2 6 18.5 WNW 17 26 9 14 1012.1 1011.9 0.0
18/06:00pm 34.8 28.7 -8.0 6 18.6 WNW 17 30 9 16 1012.1 1011.9 0.0
18/05:30pm 35.1 28.4 -7.8 6 18.8 WNW 20 30 11 16 1012.4 1012.2 0.0
18/05:00pm 35.3 28.1 -5.7 7 18.6 WNW 24 35 13 19 1012.9 1012.6 0.0
18/04:30pm 34.6 27.3 -6.2 7 18.2 NW 24 35 13 19 1013.2 1012.9 0.0
18/04:00pm 35.0 28.5 -5.9 7 18.4 WNW 20 32 11 17 1013.5 1013.2 0.0
18/03:30pm 34.7 28.2 -6.1 7 18.3 W 20 33 11 18 1014.0 1013.7 0.0
18/03:00pm 34.0 26.5 -4.9 8 17.7 WNW 26 39 14 21 1014.5 1014.2 0.0
18/02:30pm 32.8 26.3 -5.7 8 17.1 WNW 20 35 11 19 1015.1 1014.8 0.0
18/02:00pm 33.1 26.1 -7.3 7 17.5 WNW 22 41 12 22 1015.5 1015.2 0.0
18/01:30pm 33.0 25.8 -5.6 8 17.2 WNW 24 32 13 17 1016.0 1015.7 0.0
18/01:00pm 31.4 24.0 -3.8 10 16.0 WNW 26 37 14 20 1016.4 1016.1 0.0
18/12:30pm 31.8 24.4 -3.5 10 16.1 NW 26 43 14 23 1016.7 1016.4 0.0

Other formats

Comma delimited format used in spreadsheet applications
http://www.bom.gov.au/fwo/IDS60801/IDS60801.95670.axf

JavaScript Object Notation format (JSON) in row-major order
http://www.bom.gov.au/fwo/IDS60801/IDS60801.95670.json

Data quality

Most of these data are generated automatically and are frequently updated. Quality checks on data are not normally performed. It is possible for incorrect values to appear. Refer to information at About Latest Weather Observations and please check the disclaimer before using these data.